sensor_id;sensor_type;location;lat;lon;timestamp;pressure;altitude;pressure_sealevel;temperature;humidity
31225;BME280;17847;31.524;74.366;2023-03-16T00:02:42;98498.66;;;19.27;58.63
31225;BME280;17847;31.524;74.366;2023-03-16T00:05:24;98505.66;;;19.28;60.13
31225;BME280;17847;31.524;74.366;2023-03-16T00:08:20;98502.31;;;19.21;59.02
31225;BME280;17847;31.524;74.366;2023-03-16T00:11:02;98514.84;;;19.11;58.26
31225;BME280;17847;31.524;74.366;2023-03-16T00:13:50;98519.94;;;19.12;59.08
31225;BME280;17847;31.524;74.366;2023-03-16T00:16:32;98518.09;;;19.13;60.39
31225;BME280;17847;31.524;74.366;2023-03-16T00:19:22;98527.53;;;19.15;59.66
31225;BME280;17847;31.524;74.366;2023-03-16T00:22:13;98526.13;;;19.13;59.77
31225;BME280;17847;31.524;74.366;2023-03-16T00:25:02;98524.50;;;19.12;60.31
31225;BME280;17847;31.524;74.366;2023-03-16T00:27:43;98525.59;;;19.11;60.66
31225;BME280;17847;31.524;74.366;2023-03-16T00:30:32;98528.22;;;19.06;61.00
31225;BME280;17847;31.524;74.366;2023-03-16T00:33:14;98533.28;;;19.02;60.41
31225;BME280;17847;31.524;74.366;2023-03-16T00:36:04;98535.97;;;19.02;61.25
31225;BME280;17847;31.524;74.366;2023-03-16T00:38:49;98529.78;;;19.02;61.63
31225;BME280;17847;31.524;74.366;2023-03-16T00:41:38;98540.25;;;19.03;61.44
31225;BME280;17847;31.524;74.366;2023-03-16T00:44:20;98542.38;;;19.01;61.35
31225;BME280;17847;31.524;74.366;2023-03-16T00:47:16;98539.13;;;18.99;61.25
31225;BME280;17847;31.524;74.366;2023-03-16T00:49:51;98542.91;;;18.98;61.22
31225;BME280;17847;31.524;74.366;2023-03-16T00:52:47;98551.19;;;18.97;60.47
31225;BME280;17847;31.524;74.366;2023-03-16T00:55:29;98547.44;;;18.98;61.16
31225;BME280;17847;31.524;74.366;2023-03-16T00:58:19;98552.81;;;18.98;61.07
31225;BME280;17847;31.524;74.366;2023-03-16T01:00:53;98552.00;;;18.97;61.38
31225;BME280;17847;31.524;74.366;2023-03-16T01:03:49;98556.84;;;19.00;61.31
31225;BME280;17847;31.524;74.366;2023-03-16T01:06:25;98546.94;;;19.01;61.37
31225;BME280;17847;31.524;74.366;2023-03-16T01:09:20;98560.13;;;19.02;61.97
31225;BME280;17847;31.524;74.366;2023-03-16T01:11:55;98561.94;;;18.97;61.82
31225;BME280;17847;31.524;74.366;2023-03-16T01:14:53;98561.63;;;18.93;62.46
31225;BME280;17847;31.524;74.366;2023-03-16T01:17:35;98567.00;;;18.93;62.55
31225;BME280;17847;31.524;74.366;2023-03-16T01:20:24;98571.16;;;18.84;63.10
31225;BME280;17847;31.524;74.366;2023-03-16T01:23:06;98574.31;;;18.81;63.68
31225;BME280;17847;31.524;74.366;2023-03-16T01:26:02;98580.25;;;18.83;63.64
31225;BME280;17847;31.524;74.366;2023-03-16T01:28:37;98585.94;;;18.87;62.92
31225;BME280;17847;31.524;74.366;2023-03-16T01:31:34;98576.75;;;18.82;63.23
31225;BME280;17847;31.524;74.366;2023-03-16T01:34:17;98581.38;;;18.87;63.26
31225;BME280;17847;31.524;74.366;2023-03-16T01:37:06;98584.66;;;19.11;63.53
31225;BME280;17847;31.524;74.366;2023-03-16T01:39:49;98594.00;;;19.08;61.13
31225;BME280;17847;31.524;74.366;2023-03-16T01:42:47;98593.19;;;19.08;61.90
31225;BME280;17847;31.524;74.366;2023-03-16T01:46:08;98602.56;;;19.27;62.56
31225;BME280;17847;31.524;74.366;2023-03-16T01:49:17;98597.25;;;19.32;62.07
31225;BME280;17847;31.524;74.366;2023-03-16T01:52:15;98603.91;;;19.29;61.49
31225;BME280;17847;31.524;74.366;2023-03-16T01:55:03;98609.63;;;19.33;62.27
31225;BME280;17847;31.524;74.366;2023-03-16T01:57:56;98606.25;;;19.43;61.28
31225;BME280;17847;31.524;74.366;2023-03-16T02:00:39;98617.69;;;19.55;61.15
31225;BME280;17847;31.524;74.366;2023-03-16T02:03:28;98619.09;;;19.62;60.87
31225;BME280;17847;31.524;74.366;2023-03-16T02:06:20;98621.63;;;19.74;60.47
31225;BME280;17847;31.524;74.366;2023-03-16T02:09:09;98616.38;;;19.84;60.57
31225;BME280;17847;31.524;74.366;2023-03-16T02:11:52;98629.34;;;19.92;59.84
31225;BME280;17847;31.524;74.366;2023-03-16T02:14:47;98630.00;;;20.04;59.84
31225;BME280;17847;31.524;74.366;2023-03-16T02:17:31;98636.56;;;20.18;56.78
31225;BME280;17847;31.524;74.366;2023-03-16T02:23:24;98643.81;;;21.24;55.80
31225;BME280;17847;31.524;74.366;2023-03-16T02:32:09;98661.56;;;23.13;50.69
31225;BME280;17847;31.524;74.366;2023-03-16T02:34:52;98668.66;;;23.68;47.07
31225;BME280;17847;31.524;74.366;2023-03-16T02:37:42;98673.31;;;24.07;45.74
31225;BME280;17847;31.524;74.366;2023-03-16T02:40:31;98671.91;;;24.20;46.34
31225;BME280;17847;31.524;74.366;2023-03-16T02:43:31;98680.69;;;23.91;45.58
31225;BME280;17847;31.524;74.366;2023-03-16T02:46:27;98679.53;;;24.51;45.28
31225;BME280;17847;31.524;74.366;2023-03-16T02:49:21;98680.53;;;24.22;46.16
31225;BME280;17847;31.524;74.366;2023-03-16T02:52:06;98686.25;;;24.83;43.66
31225;BME280;17847;31.524;74.366;2023-03-16T02:54:55;98703.81;;;24.56;43.53
31225;BME280;17847;31.524;74.366;2023-03-16T02:57:29;98703.94;;;25.33;45.17
31225;BME280;17847;31.524;74.366;2023-03-16T03:00:26;98708.88;;;25.02;42.36
31225;BME280;17847;31.524;74.366;2023-03-16T03:03:08;98705.75;;;24.85;44.05
31225;BME280;17847;31.524;74.366;2023-03-16T03:05:56;98707.19;;;25.35;42.09
31225;BME280;17847;31.524;74.366;2023-03-16T03:08:35;98701.38;;;26.08;41.23
31225;BME280;17847;31.524;74.366;2023-03-16T03:11:31;98713.84;;;24.95;42.16
31225;BME280;17847;31.524;74.366;2023-03-16T03:14:12;98704.94;;;25.42;42.05
31225;BME280;17847;31.524;74.366;2023-03-16T03:17:05;98710.09;;;25.15;45.36
31225;BME280;17847;31.524;74.366;2023-03-16T03:19:40;98709.38;;;25.33;42.22
31225;BME280;17847;31.524;74.366;2023-03-16T03:22:36;98719.56;;;24.15;43.27
31225;BME280;17847;31.524;74.366;2023-03-16T03:25:14;98721.53;;;24.44;44.41
31225;BME280;17847;31.524;74.366;2023-03-16T03:28:10;98728.00;;;24.87;45.63
31225;BME280;17847;31.524;74.366;2023-03-16T03:30:45;98730.72;;;24.82;43.15
31225;BME280;17847;31.524;74.366;2023-03-16T03:33:41;98725.28;;;24.87;43.51
31225;BME280;17847;31.524;74.366;2023-03-16T03:36:22;98727.69;;;24.88;42.42
31225;BME280;17847;31.524;74.366;2023-03-16T03:39:12;98723.09;;;24.89;43.96
31225;BME280;17847;31.524;74.366;2023-03-16T03:41:49;98727.19;;;24.86;43.25
31225;BME280;17847;31.524;74.366;2023-03-16T03:44:45;98730.72;;;24.87;43.72
31225;BME280;17847;31.524;74.366;2023-03-16T03:47:26;98719.31;;;24.85;43.72
31225;BME280;17847;31.524;74.366;2023-03-16T03:50:19;98719.34;;;24.80;43.03
31225;BME280;17847;31.524;74.366;2023-03-16T03:53:33;98715.66;;;25.04;43.42
31225;BME280;17847;31.524;74.366;2023-03-16T03:56:16;98709.88;;;25.11;42.52
31225;BME280;17847;31.524;74.366;2023-03-16T03:59:17;98716.88;;;24.88;43.63
31225;BME280;17847;31.524;74.366;2023-03-16T04:02:20;98725.59;;;25.38;44.33
31225;BME280;17847;31.524;74.366;2023-03-16T04:05:27;98725.53;;;25.43;42.42
31225;BME280;17847;31.524;74.366;2023-03-16T04:08:02;98730.59;;;25.49;43.28
31225;BME280;17847;31.524;74.366;2023-03-16T04:10:59;98732.19;;;25.56;42.08
31225;BME280;17847;31.524;74.366;2023-03-16T04:13:40;98736.53;;;25.57;42.87
31225;BME280;17847;31.524;74.366;2023-03-16T04:16:29;98731.72;;;25.72;43.36
31225;BME280;17847;31.524;74.366;2023-03-16T04:19:12;98749.41;;;25.41;40.71
31225;BME280;17847;31.524;74.366;2023-03-16T04:22:02;98738.81;;;25.44;40.71
31225;BME280;17847;31.524;74.366;2023-03-16T04:24:45;98737.34;;;25.57;41.97
31225;BME280;17847;31.524;74.366;2023-03-16T04:27:35;98741.00;;;25.90;41.54
31225;BME280;17847;31.524;74.366;2023-03-16T04:30:17;98743.38;;;26.15;41.67
31225;BME280;17847;31.524;74.366;2023-03-16T04:33:26;98747.00;;;26.48;41.75
31225;BME280;17847;31.524;74.366;2023-03-16T04:36:01;98742.91;;;26.83;42.18
31225;BME280;17847;31.524;74.366;2023-03-16T04:38:58;98749.06;;;26.38;40.05
31225;BME280;17847;31.524;74.366;2023-03-16T04:41:33;98760.56;;;26.48;42.08
31225;BME280;17847;31.524;74.366;2023-03-16T04:44:31;98757.97;;;26.94;39.46
31225;BME280;17847;31.524;74.366;2023-03-16T04:47:15;98760.00;;;26.83;41.84
31225;BME280;17847;31.524;74.366;2023-03-16T04:50:11;98765.53;;;27.43;39.17
31225;BME280;17847;31.524;74.366;2023-03-16T04:53:07;98764.78;;;27.84;40.35
31225;BME280;17847;31.524;74.366;2023-03-16T04:55:55;98766.63;;;28.60;37.73
31225;BME280;17847;31.524;74.366;2023-03-16T04:58:55;98768.19;;;27.89;36.66
31225;BME280;17847;31.524;74.366;2023-03-16T05:02:02;98775.44;;;27.94;36.03
31225;BME280;17847;31.524;74.366;2023-03-16T05:04:52;98778.06;;;27.72;36.95
31225;BME280;17847;31.524;74.366;2023-03-16T05:07:35;98779.59;;;27.91;39.13
31225;BME280;17847;31.524;74.366;2023-03-16T05:10:24;98778.88;;;28.13;38.89
31225;BME280;17847;31.524;74.366;2023-03-16T05:13:06;98778.34;;;28.25;38.43
31225;BME280;17847;31.524;74.366;2023-03-16T05:16:04;98770.88;;;29.11;35.60
31225;BME280;17847;31.524;74.366;2023-03-16T05:18:46;98780.44;;;28.99;36.32
31225;BME280;17847;31.524;74.366;2023-03-16T05:21:38;98771.19;;;29.31;36.01
31225;BME280;17847;31.524;74.366;2023-03-16T05:24:14;98772.50;;;29.73;36.54
31225;BME280;17847;31.524;74.366;2023-03-16T05:27:11;98770.22;;;28.69;36.09
31225;BME280;17847;31.524;74.366;2023-03-16T05:29:52;98769.50;;;29.22;35.13
31225;BME280;17847;31.524;74.366;2023-03-16T05:32:41;98774.22;;;29.61;35.37
31225;BME280;17847;31.524;74.366;2023-03-16T05:35:17;98770.72;;;29.69;35.40
31225;BME280;17847;31.524;74.366;2023-03-16T05:38:16;98766.03;;;29.61;34.98
31225;BME280;17847;31.524;74.366;2023-03-16T05:40:58;98771.78;;;29.90;34.04
31225;BME280;17847;31.524;74.366;2023-03-16T05:44:08;98767.38;;;30.63;34.97
31225;BME280;17847;31.524;74.366;2023-03-16T05:47:07;98764.81;;;30.75;34.30
31225;BME280;17847;31.524;74.366;2023-03-16T05:50:05;98763.53;;;29.81;34.81
31225;BME280;17847;31.524;74.366;2023-03-16T05:52:59;98758.84;;;29.73;36.51
31225;BME280;17847;31.524;74.366;2023-03-16T05:55:42;98759.94;;;30.20;34.81
31225;BME280;17847;31.524;74.366;2023-03-16T05:58:40;98753.22;;;30.69;40.32
31225;BME280;17847;31.524;74.366;2023-03-16T06:01:23;98755.28;;;30.38;36.36
31225;BME280;17847;31.524;74.366;2023-03-16T06:04:14;98751.28;;;30.36;34.18
31225;BME280;17847;31.524;74.366;2023-03-16T06:06:57;98747.41;;;30.19;36.88
31225;BME280;17847;31.524;74.366;2023-03-16T06:09:54;98743.56;;;30.63;36.11
31225;BME280;17847;31.524;74.366;2023-03-16T06:12:31;98746.97;;;30.69;35.20
31225;BME280;17847;31.524;74.366;2023-03-16T06:15:27;98737.28;;;30.28;34.57
31225;BME280;17847;31.524;74.366;2023-03-16T06:18:09;98740.97;;;30.32;36.16
31225;BME280;17847;31.524;74.366;2023-03-16T06:20:58;98737.13;;;30.16;36.41
31225;BME280;17847;31.524;74.366;2023-03-16T06:23:40;98735.03;;;30.30;36.12
31225;BME280;17847;31.524;74.366;2023-03-16T06:26:29;98737.28;;;30.28;36.71
31225;BME280;17847;31.524;74.366;2023-03-16T06:29:07;98735.88;;;30.65;37.09
31225;BME280;17847;31.524;74.366;2023-03-16T06:32:03;98736.88;;;29.87;41.02
31225;BME280;17847;31.524;74.366;2023-03-16T06:34:39;98732.16;;;30.44;41.49
31225;BME280;17847;31.524;74.366;2023-03-16T06:37:34;98725.72;;;30.40;40.28
31225;BME280;17847;31.524;74.366;2023-03-16T06:40:35;98725.53;;;30.19;40.33
31225;BME280;17847;31.524;74.366;2023-03-16T06:43:31;98719.41;;;30.05;37.43
31225;BME280;17847;31.524;74.366;2023-03-16T06:46:13;98718.94;;;30.29;36.76
31225;BME280;17847;31.524;74.366;2023-03-16T06:49:05;98717.31;;;30.02;36.15
31225;BME280;17847;31.524;74.366;2023-03-16T06:51:59;98712.22;;;30.18;36.13
31225;BME280;17847;31.524;74.366;2023-03-16T06:54:42;98707.00;;;29.82;37.25
31225;BME280;17847;31.524;74.366;2023-03-16T06:57:34;98698.50;;;30.01;37.52
31225;BME280;17847;31.524;74.366;2023-03-16T07:00:18;98697.59;;;30.22;36.98
31225;BME280;17847;31.524;74.366;2023-03-16T07:03:06;98695.31;;;29.99;37.08
31225;BME280;17847;31.524;74.366;2023-03-16T07:05:57;98686.00;;;30.34;39.18
31225;BME280;17847;31.524;74.366;2023-03-16T07:08:48;98683.09;;;30.65;36.76
31225;BME280;17847;31.524;74.366;2023-03-16T07:11:31;98675.72;;;30.31;35.29
31225;BME280;17847;31.524;74.366;2023-03-16T07:14:19;98677.16;;;30.46;37.27
31225;BME280;17847;31.524;74.366;2023-03-16T07:17:04;98679.28;;;30.49;36.00
31225;BME280;17847;31.524;74.366;2023-03-16T07:20:00;98676.13;;;29.73;36.98
31225;BME280;17847;31.524;74.366;2023-03-16T07:22:44;98664.00;;;30.13;34.86
31225;BME280;17847;31.524;74.366;2023-03-16T07:25:33;98651.44;;;30.38;37.38
31225;BME280;17847;31.524;74.366;2023-03-16T07:28:18;98656.75;;;30.52;33.76
31225;BME280;17847;31.524;74.366;2023-03-16T07:31:08;98651.28;;;30.52;36.67
31225;BME280;17847;31.524;74.366;2023-03-16T07:33:49;98655.28;;;30.54;34.81
31225;BME280;17847;31.524;74.366;2023-03-16T07:36:46;98644.06;;;30.13;35.72
31225;BME280;17847;31.524;74.366;2023-03-16T07:39:28;98647.41;;;30.10;35.93
31225;BME280;17847;31.524;74.366;2023-03-16T07:42:26;98639.72;;;30.03;34.50
31225;BME280;17847;31.524;74.366;2023-03-16T07:45:12;98630.72;;;30.20;36.22
31225;BME280;17847;31.524;74.366;2023-03-16T07:48:03;98626.53;;;30.22;37.55
31225;BME280;17847;31.524;74.366;2023-03-16T07:50:57;98623.19;;;30.00;34.90
31225;BME280;17847;31.524;74.366;2023-03-16T07:53:54;98618.13;;;29.76;35.53
31225;BME280;17847;31.524;74.366;2023-03-16T07:56:37;98607.53;;;29.83;35.79
31225;BME280;17847;31.524;74.366;2023-03-16T07:59:41;98601.78;;;29.93;35.50
31225;BME280;17847;31.524;74.366;2023-03-16T08:02:23;98596.28;;;29.76;36.97
31225;BME280;17847;31.524;74.366;2023-03-16T08:05:15;98593.59;;;29.93;34.17
31225;BME280;17847;31.524;74.366;2023-03-16T08:08:05;98588.91;;;29.85;34.98
31225;BME280;17847;31.524;74.366;2023-03-16T08:10:56;98585.41;;;29.93;36.09
31225;BME280;17847;31.524;74.366;2023-03-16T08:13:52;98572.22;;;29.86;34.45
31225;BME280;17847;31.524;74.366;2023-03-16T08:17:10;98571.13;;;30.05;33.61
31225;BME280;17847;31.524;74.366;2023-03-16T08:19:54;98563.09;;;30.00;34.66
31225;BME280;17847;31.524;74.366;2023-03-16T08:22:42;98556.81;;;29.99;35.58
31225;BME280;17847;31.524;74.366;2023-03-16T08:25:33;98560.81;;;30.02;36.14
31225;BME280;17847;31.524;74.366;2023-03-16T08:28:23;98547.16;;;29.93;35.40
31225;BME280;17847;31.524;74.366;2023-03-16T08:31:09;98544.28;;;29.98;35.13
31225;BME280;17847;31.524;74.366;2023-03-16T08:34:13;98550.03;;;30.05;33.51
31225;BME280;17847;31.524;74.366;2023-03-16T08:36:58;98544.28;;;29.98;33.57
31225;BME280;17847;31.524;74.366;2023-03-16T08:39:47;98537.69;;;29.91;33.53
31225;BME280;17847;31.524;74.366;2023-03-16T08:42:32;98533.66;;;29.62;34.90
31225;BME280;17847;31.524;74.366;2023-03-16T08:45:20;98526.56;;;29.70;34.56
31225;BME280;17847;31.524;74.366;2023-03-16T08:48:04;98524.84;;;29.91;35.43
31225;BME280;17847;31.524;74.366;2023-03-16T08:50:57;98518.56;;;29.82;35.60
31225;BME280;17847;31.524;74.366;2023-03-16T08:53:55;98510.03;;;29.83;35.40
31225;BME280;17847;31.524;74.366;2023-03-16T08:56:37;98504.13;;;29.64;35.27
31225;BME280;17847;31.524;74.366;2023-03-16T08:59:33;98503.63;;;29.71;36.10
31225;BME280;17847;31.524;74.366;2023-03-16T09:02:14;98499.28;;;29.70;35.48
31225;BME280;17847;31.524;74.366;2023-03-16T09:05:03;98494.78;;;29.57;35.64
31225;BME280;17847;31.524;74.366;2023-03-16T09:07:45;98490.13;;;29.57;36.55
31225;BME280;17847;31.524;74.366;2023-03-16T09:10:34;98483.56;;;29.67;36.35
31225;BME280;17847;31.524;74.366;2023-03-16T09:13:15;98490.63;;;29.51;36.51
31225;BME280;17847;31.524;74.366;2023-03-16T09:16:05;98477.94;;;29.55;37.55
31225;BME280;17847;31.524;74.366;2023-03-16T09:18:47;98469.91;;;29.41;36.57
31225;BME280;17847;31.524;74.366;2023-03-16T09:21:36;98469.41;;;29.48;36.49
31225;BME280;17847;31.524;74.366;2023-03-16T09:24:19;98464.47;;;29.50;37.66
31225;BME280;17847;31.524;74.366;2023-03-16T09:27:08;98458.69;;;29.51;37.36
31225;BME280;17847;31.524;74.366;2023-03-16T09:29:49;98463.34;;;29.42;36.31
31225;BME280;17847;31.524;74.366;2023-03-16T09:32:40;98467.03;;;29.37;36.45
31225;BME280;17847;31.524;74.366;2023-03-16T09:35:22;98461.44;;;29.34;37.11
31225;BME280;17847;31.524;74.366;2023-03-16T09:38:14;98465.53;;;29.23;36.76
31225;BME280;17847;31.524;74.366;2023-03-16T09:41:07;98458.81;;;29.20;37.54
31225;BME280;17847;31.524;74.366;2023-03-16T09:46:43;98455.28;;;29.28;36.22
31225;BME280;17847;31.524;74.366;2023-03-16T09:49:45;98448.75;;;29.29;35.87
31225;BME280;17847;31.524;74.366;2023-03-16T09:52:53;98449.34;;;29.26;34.61
31225;BME280;17847;31.524;74.366;2023-03-16T09:55:38;98457.06;;;29.16;35.95
31225;BME280;17847;31.524;74.366;2023-03-16T09:58:29;98451.09;;;29.22;36.49
31225;BME280;17847;31.524;74.366;2023-03-16T10:04:52;98454.13;;;29.12;36.19
31225;BME280;17847;31.524;74.366;2023-03-16T10:08:20;98451.44;;;29.21;36.91
31225;BME280;17847;31.524;74.366;2023-03-16T10:14:21;98452.84;;;29.10;35.89
31225;BME280;17847;31.524;74.366;2023-03-16T10:17:21;98444.81;;;29.05;34.73
31225;BME280;17847;31.524;74.366;2023-03-16T10:20:10;98450.94;;;29.10;35.31
31225;BME280;17847;31.524;74.366;2023-03-16T10:23:28;98447.09;;;29.02;33.04
31225;BME280;17847;31.524;74.366;2023-03-16T10:26:27;98448.19;;;28.93;34.85
31225;BME280;17847;31.524;74.366;2023-03-16T10:29:19;98437.94;;;28.90;33.98
31225;BME280;17847;31.524;74.366;2023-03-16T10:32:12;98436.78;;;28.91;35.04
31225;BME280;17847;31.524;74.366;2023-03-16T10:38:45;98435.03;;;28.95;35.91
31225;BME280;17847;31.524;74.366;2023-03-16T10:41:37;98434.56;;;28.93;35.82
31225;BME280;17847;31.524;74.366;2023-03-16T10:44:24;98427.16;;;28.85;36.41
31225;BME280;17847;31.524;74.366;2023-03-16T10:47:27;98422.84;;;28.84;35.23
31225;BME280;17847;31.524;74.366;2023-03-16T10:50:23;98428.28;;;28.84;36.39
31225;BME280;17847;31.524;74.366;2023-03-16T10:53:34;98428.94;;;28.81;35.91
31225;BME280;17847;31.524;74.366;2023-03-16T10:56:22;98421.03;;;28.71;35.67
31225;BME280;17847;31.524;74.366;2023-03-16T11:02:18;98421.50;;;28.73;35.08
31225;BME280;17847;31.524;74.366;2023-03-16T11:08:14;98424.84;;;28.61;36.59
31225;BME280;17847;31.524;74.366;2023-03-16T11:11:28;98421.44;;;28.55;36.58
31225;BME280;17847;31.524;74.366;2023-03-16T11:14:13;98422.41;;;28.51;35.73
31225;BME280;17847;31.524;74.366;2023-03-16T11:17:13;98427.25;;;28.63;37.74
31225;BME280;17847;31.524;74.366;2023-03-16T11:20:02;98428.84;;;28.64;38.22
31225;BME280;17847;31.524;74.366;2023-03-16T11:22:52;98423.69;;;28.53;39.51
31225;BME280;17847;31.524;74.366;2023-03-16T11:25:45;98425.44;;;28.41;39.72
31225;BME280;17847;31.524;74.366;2023-03-16T11:28:43;98435.50;;;28.32;38.35
31225;BME280;17847;31.524;74.366;2023-03-16T11:31:47;98435.63;;;28.27;38.44
31225;BME280;17847;31.524;74.366;2023-03-16T11:34:44;98440.25;;;28.26;38.80
31225;BME280;17847;31.524;74.366;2023-03-16T11:37:37;98440.91;;;28.23;39.00
31225;BME280;17847;31.524;74.366;2023-03-16T11:43:35;98448.03;;;28.10;37.31
31225;BME280;17847;31.524;74.366;2023-03-16T11:47:16;98444.63;;;28.05;36.69
31225;BME280;17847;31.524;74.366;2023-03-16T11:55:31;98443.81;;;27.74;41.46
31225;BME280;17847;31.524;74.366;2023-03-16T11:58:56;98453.44;;;27.57;40.40
31225;BME280;17847;31.524;74.366;2023-03-16T12:11:37;98460.53;;;27.09;40.97
31225;BME280;17847;31.524;74.366;2023-03-16T12:14:46;98471.84;;;26.89;41.81
31225;BME280;17847;31.524;74.366;2023-03-16T12:17:39;98474.06;;;26.73;42.87
31225;BME280;17847;31.524;74.366;2023-03-16T12:20:29;98470.44;;;26.64;43.02
31225;BME280;17847;31.524;74.366;2023-03-16T12:23:36;98475.78;;;26.55;41.38
31225;BME280;17847;31.524;74.366;2023-03-16T12:26:22;98478.34;;;26.47;41.45
31225;BME280;17847;31.524;74.366;2023-03-16T12:29:26;98478.97;;;26.44;41.67
31225;BME280;17847;31.524;74.366;2023-03-16T12:32:34;98478.56;;;26.36;42.29
31225;BME280;17847;31.524;74.366;2023-03-16T12:35:44;98505.03;;;26.31;43.59
31225;BME280;17847;31.524;74.366;2023-03-16T12:38:50;98514.09;;;26.08;41.77
31225;BME280;17847;31.524;74.366;2023-03-16T12:42:06;98522.78;;;25.91;40.08
31225;BME280;17847;31.524;74.366;2023-03-16T12:46:03;98530.44;;;25.70;38.43
31225;BME280;17847;31.524;74.366;2023-03-16T12:48:37;98523.91;;;25.53;37.44
31225;BME280;17847;31.524;74.366;2023-03-16T12:51:36;98535.03;;;25.32;37.77
31225;BME280;17847;31.524;74.366;2023-03-16T12:54:32;98540.06;;;25.20;39.15
31225;BME280;17847;31.524;74.366;2023-03-16T12:57:16;98545.19;;;25.03;40.18
31225;BME280;17847;31.524;74.366;2023-03-16T13:00:11;98539.13;;;24.87;39.11
31225;BME280;17847;31.524;74.366;2023-03-16T13:02:55;98543.31;;;24.75;39.42
31225;BME280;17847;31.524;74.366;2023-03-16T13:05:55;98539.63;;;24.66;39.69
31225;BME280;17847;31.524;74.366;2023-03-16T13:08:41;98559.44;;;24.61;40.69
31225;BME280;17847;31.524;74.366;2023-03-16T13:11:43;98568.25;;;24.48;39.80
31225;BME280;17847;31.524;74.366;2023-03-16T13:14:42;98560.28;;;24.33;39.08
31225;BME280;17847;31.524;74.366;2023-03-16T13:17:35;98567.34;;;24.29;39.29
31225;BME280;17847;31.524;74.366;2023-03-16T13:20:34;98564.69;;;24.24;38.72
31225;BME280;17847;31.524;74.366;2023-03-16T13:23:57;98561.75;;;24.20;38.56
31225;BME280;17847;31.524;74.366;2023-03-16T13:26:40;98560.13;;;24.14;39.62
31225;BME280;17847;31.524;74.366;2023-03-16T13:29:36;98559.09;;;24.10;38.85
31225;BME280;17847;31.524;74.366;2023-03-16T13:32:18;98558.03;;;24.06;40.25
31225;BME280;17847;31.524;74.366;2023-03-16T13:35:16;98558.34;;;23.99;40.08
31225;BME280;17847;31.524;74.366;2023-03-16T13:38:05;98563.28;;;23.92;39.72
31225;BME280;17847;31.524;74.366;2023-03-16T13:40:57;98554.69;;;23.85;40.12
31225;BME280;17847;31.524;74.366;2023-03-16T13:43:43;98566.38;;;23.81;39.87
31225;BME280;17847;31.524;74.366;2023-03-16T13:46:32;98573.13;;;23.78;39.83
31225;BME280;17847;31.524;74.366;2023-03-16T13:49:15;98568.88;;;23.67;39.77
31225;BME280;17847;31.524;74.366;2023-03-16T13:52:04;98568.59;;;23.68;39.56
31225;BME280;17847;31.524;74.366;2023-03-16T13:54:48;98574.31;;;23.67;38.97
31225;BME280;17847;31.524;74.366;2023-03-16T13:57:41;98572.13;;;23.64;39.09
31225;BME280;17847;31.524;74.366;2023-03-16T14:00:26;98575.69;;;23.59;39.65
31225;BME280;17847;31.524;74.366;2023-03-16T14:03:19;98577.63;;;23.54;40.44
31225;BME280;17847;31.524;74.366;2023-03-16T14:06:02;98580.34;;;23.49;41.15
31225;BME280;17847;31.524;74.366;2023-03-16T14:08:56;98584.13;;;23.43;40.87
31225;BME280;17847;31.524;74.366;2023-03-16T14:11:33;98572.84;;;23.31;41.57
31225;BME280;17847;31.524;74.366;2023-03-16T14:14:36;98581.53;;;23.27;41.49
31225;BME280;17847;31.524;74.366;2023-03-16T14:17:16;98577.47;;;23.20;41.78
31225;BME280;17847;31.524;74.366;2023-03-16T14:20:30;98588.88;;;23.12;42.78
31225;BME280;17847;31.524;74.366;2023-03-16T14:23:23;98596.75;;;23.03;43.31
31225;BME280;17847;31.524;74.366;2023-03-16T14:26:15;98593.78;;;23.05;43.32
31225;BME280;17847;31.524;74.366;2023-03-16T14:32:19;98599.50;;;22.83;42.16
31225;BME280;17847;31.524;74.366;2023-03-16T14:35:16;98602.47;;;22.81;43.64
31225;BME280;17847;31.524;74.366;2023-03-16T14:41:21;98592.50;;;22.72;43.80
31225;BME280;17847;31.524;74.366;2023-03-16T14:44:19;98596.81;;;22.63;43.43
31225;BME280;17847;31.524;74.366;2023-03-16T14:47:04;98601.69;;;22.56;43.59
31225;BME280;17847;31.524;74.366;2023-03-16T14:49:58;98612.50;;;22.51;44.76
31225;BME280;17847;31.524;74.366;2023-03-16T14:52:53;98610.88;;;22.50;44.54
31225;BME280;17847;31.524;74.366;2023-03-16T14:55:37;98614.13;;;22.42;44.15
31225;BME280;17847;31.524;74.366;2023-03-16T14:58:26;98626.00;;;22.40;44.72
31225;BME280;17847;31.524;74.366;2023-03-16T15:01:14;98627.63;;;22.42;43.29
31225;BME280;17847;31.524;74.366;2023-03-16T15:04:05;98644.06;;;22.40;44.29
31225;BME280;17847;31.524;74.366;2023-03-16T15:06:48;98648.94;;;22.38;43.78
31225;BME280;17847;31.524;74.366;2023-03-16T15:09:40;98651.91;;;22.31;44.56
31225;BME280;17847;31.524;74.366;2023-03-16T15:12:20;98650.56;;;22.34;44.82
31225;BME280;17847;31.524;74.366;2023-03-16T15:15:18;98650.81;;;22.27;44.70
31225;BME280;17847;31.524;74.366;2023-03-16T15:17:53;98642.72;;;22.22;45.81
31225;BME280;17847;31.524;74.366;2023-03-16T15:20:50;98653.25;;;22.19;44.17
31225;BME280;17847;31.524;74.366;2023-03-16T15:23:35;98658.91;;;22.17;44.63
31225;BME280;17847;31.524;74.366;2023-03-16T15:26:25;98668.63;;;22.18;45.24
31225;BME280;17847;31.524;74.366;2023-03-16T15:29:10;98671.06;;;22.20;45.36
31225;BME280;17847;31.524;74.366;2023-03-16T15:32:12;98666.75;;;22.29;47.05
31225;BME280;17847;31.524;74.366;2023-03-16T15:34:54;98668.88;;;22.22;45.25
31225;BME280;17847;31.524;74.366;2023-03-16T15:37:45;98665.38;;;22.16;45.08
31225;BME280;17847;31.524;74.366;2023-03-16T15:40:28;98662.94;;;22.10;45.27
31225;BME280;17847;31.524;74.366;2023-03-16T15:43:23;98668.63;;;22.08;45.99
31225;BME280;17847;31.524;74.366;2023-03-16T15:46:06;98681.56;;;22.11;45.96
31225;BME280;17847;31.524;74.366;2023-03-16T15:48:55;98685.88;;;22.02;45.13